Time;durP1;ratioP1;P1;durP2;ratioP2;P2;SDS_P1;SDS_P2;PMS_P1;PMS_P2;Temp;Humidity;BMP_temperature;BMP_pressure;BME280_temperature;BME280_humidity;BME280_pressure;Samples;Min_cycle;Max_cycle;Signal;HPM_P1;HPM_P2
2021/08/28 00:02:12;;;;;;;0.80;0.60;;;21.10;72.50;;;;;;5154980;27;20034;-43
2021/08/28 00:04:38;;;;;;;0.80;0.60;;;21.10;72.50;;;;;;5143114;27;20054;-43
2021/08/28 00:07:04;;;;;;;0.68;0.65;;;21.10;72.50;;;;;;5141272;27;20035;-46
2021/08/28 00:09:29;;;;;;;1.30;0.90;;;21.10;72.50;;;;;;5154335;27;20047;-42
2021/08/28 00:11:55;;;;;;;1.15;0.50;;;21.10;72.50;;;;;;5133732;27;20058;-43
2021/08/28 00:14:21;;;;;;;1.23;0.60;;;21.10;72.50;;;;;;5133748;27;20035;-44
2021/08/28 00:16:46;;;;;;;1.23;0.85;;;21.10;72.50;;;;;;5151743;27;20046;-47
2021/08/28 00:19:12;;;;;;;1.35;0.90;;;21.10;72.50;;;;;;5153982;27;20043;-47
2021/08/28 00:21:38;;;;;;;0.68;0.63;;;21.10;72.50;;;;;;5141138;27;20039;-45
2021/08/28 00:24:04;;;;;;;0.90;0.68;;;21.10;72.50;;;;;;5143819;27;20130;-47
2021/08/28 00:26:30;;;;;;;0.90;0.80;;;21.10;72.50;;;;;;5152266;27;20058;-42
2021/08/28 00:28:56;;;;;;;0.95;0.60;;;21.10;72.50;;;;;;5154073;27;20058;-45
2021/08/28 00:31:22;;;;;;;0.98;0.70;;;21.10;72.40;;;;;;5154486;27;20432;-46
2021/08/28 00:33:47;;;;;;;1.00;0.75;;;21.10;72.40;;;;;;5152379;27;20042;-44
2021/08/28 00:36:13;;;;;;;0.70;0.60;;;21.10;72.40;;;;;;5153478;27;20095;-43
2021/08/28 00:38:39;;;;;;;1.20;0.60;;;21.10;72.40;;;;;;5151615;27;20038;-42
2021/08/28 00:41:05;;;;;;;1.45;0.85;;;21.10;72.40;;;;;;5133439;27;20487;-43
2021/08/28 00:43:30;;;;;;;1.20;0.73;;;21.10;72.40;;;;;;5139362;27;20053;-42
2021/08/28 00:45:58;;;;;;;1.45;0.70;;;21.10;72.40;;;;;;5154037;27;20035;-42
2021/08/28 00:48:23;;;;;;;0.95;0.73;;;21.10;72.40;;;;;;5152198;27;20121;-43
2021/08/28 00:50:49;;;;;;;1.02;0.75;;;21.10;72.40;;;;;;5135033;27;20519;-42
2021/08/28 00:53:16;;;;;;;1.10;0.82;;;21.10;72.40;;;;;;5141418;27;20039;-45
2021/08/28 00:55:44;;;;;;;2.47;1.20;;;21.10;72.50;;;;;;5148075;27;20046;-44
2021/08/28 00:58:10;;;;;;;1.13;0.70;;;21.10;73.20;;;;;;5152680;27;20039;-45
2021/08/28 01:00:47;;;;;;;1.17;0.70;;;21.10;73.70;;;;;;5144130;27;20061;-45
2021/08/28 01:03:17;;;;;;;0.77;0.60;;;21.10;74.00;;;;;;5141300;27;20518;-45
2021/08/28 01:05:52;;;;;;;0.98;0.70;;;21.00;74.30;;;;;;5152003;27;20035;-46
2021/08/28 01:08:36;;;;;;;;;;;21.10;74.80;;;;;;5138983;27;20035;-43
2021/08/28 01:11:28;;;;;;;1.15;0.60;;;21.00;74.90;;;;;;5137038;27;19927;-44
2021/08/28 01:14:00;;;;;;;1.95;1.00;;;21.00;75.20;;;;;;5146464;27;20478;-44
2021/08/28 01:16:27;;;;;;;1.33;0.70;;;21.00;75.50;;;;;;5157876;27;20526;-45
2021/08/28 01:18:56;;;;;;;0.80;0.70;;;21.00;75.30;;;;;;5145838;27;20209;-44
2021/08/28 01:21:32;;;;;;;1.05;0.68;;;21.00;74.90;;;;;;5137201;27;20039;-44
2021/08/28 01:24:00;;;;;;;1.38;0.80;;;21.00;74.60;;;;;;5147063;27;20117;-44
2021/08/28 01:26:49;;;;;;;1.10;0.63;;;21.00;74.30;;;;;;5157167;27;20035;-44
2021/08/28 01:29:18;;;;;;;1.15;0.93;;;21.00;74.10;;;;;;5131737;27;20088;-47
2021/08/28 01:31:47;;;;;;;1.52;0.80;;;21.00;74.00;;;;;;5157568;27;20103;-44
2021/08/28 01:34:15;;;;;;;0.90;0.70;;;21.00;73.90;;;;;;5155783;27;20525;-46
2021/08/28 01:36:42;;;;;;;1.13;0.80;;;21.00;73.80;;;;;;5157157;27;20043;-47
2021/08/28 01:39:10;;;;;;;0.50;0.50;;;21.00;73.60;;;;;;5140756;27;20038;-46
2021/08/28 01:41:38;;;;;;;0.90;0.80;;;21.00;73.60;;;;;;5137822;27;20047;-48
2021/08/28 01:44:12;;;;;;;1.13;0.80;;;21.00;73.50;;;;;;5136835;27;20043;-47
2021/08/28 01:46:38;;;;;;;1.08;0.98;;;21.00;73.40;;;;;;5151733;27;20066;-44
2021/08/28 01:49:06;;;;;;;0.70;0.70;;;21.00;73.40;;;;;;5149746;27;20089;-46
2021/08/28 01:51:32;;;;;;;0.70;0.70;;;21.00;73.30;;;;;;5152752;27;20038;-46
2021/08/28 01:53:58;;;;;;;1.33;0.80;;;20.90;73.20;;;;;;5152978;27;20050;-47
2021/08/28 01:56:24;;;;;;;0.98;0.68;;;21.00;73.20;;;;;;5144376;27;20039;-47
2021/08/28 01:58:51;;;;;;;1.27;0.90;;;21.00;73.20;;;;;;5156541;27;20047;-47
2021/08/28 02:01:17;;;;;;;2.15;0.70;;;21.00;73.10;;;;;;5144334;27;20051;-45
2021/08/28 02:03:43;;;;;;;0.90;0.77;;;21.00;73.10;;;;;;5136147;27;20046;-45
2021/08/28 02:06:15;;;;;;;0.85;0.73;;;21.00;73.00;;;;;;5137667;27;20091;-48
2021/08/28 02:08:58;;;;;;;1.30;0.82;;;21.00;73.00;;;;;;5157081;27;20048;-47
2021/08/28 02:11:35;;;;;;;0.80;0.70;;;21.00;73.00;;;;;;5153509;27;20051;-46
2021/08/28 02:14:14;;;;;;;1.10;0.90;;;21.00;73.00;;;;;;5136377;27;20086;-44
2021/08/28 02:16:43;;;;;;;1.10;0.70;;;21.00;72.90;;;;;;5144447;27;20039;-45
2021/08/28 02:19:31;;;;;;;0.95;0.70;;;21.00;73.00;;;;;;5156535;27;20501;-49
2021/08/28 02:22:01;;;;;;;0.82;0.60;;;21.00;72.90;;;;;;5145834;27;20047;-44
2021/08/28 02:24:31;;;;;;;2.33;1.02;;;21.00;72.90;;;;;;5137182;27;20407;-42
2021/08/28 02:27:09;;;;;;;1.00;0.60;;;21.00;72.90;;;;;;5136012;27;20040;-45
2021/08/28 02:29:40;;;;;;;1.45;0.70;;;21.00;72.90;;;;;;5116801;27;20035;-46
2021/08/28 02:32:07;;;;;;;1.30;0.88;;;21.00;72.90;;;;;;5137552;27;20054;-44
2021/08/28 02:34:35;;;;;;;0.63;0.52;;;21.00;72.90;;;;;;5154703;27;20494;-46
2021/08/28 02:37:02;;;;;;;0.77;0.70;;;21.00;72.90;;;;;;5156647;27;20038;-42
2021/08/28 02:39:28;;;;;;;1.30;0.65;;;21.00;72.90;;;;;;5150419;27;20042;-44
2021/08/28 02:41:56;;;;;;;1.05;0.68;;;21.00;72.90;;;;;;5135698;27;20079;-43
2021/08/28 02:44:23;;;;;;;1.10;0.90;;;21.00;72.80;;;;;;5136418;27;20039;-43
2021/08/28 02:46:51;;;;;;;1.10;0.80;;;21.00;72.90;;;;;;5135333;27;20176;-42
2021/08/28 02:49:18;;;;;;;0.80;0.68;;;21.00;72.80;;;;;;5135361;27;20591;-46
2021/08/28 02:51:45;;;;;;;1.60;0.80;;;20.90;72.80;;;;;;5135476;27;20395;-42
2021/08/28 02:54:13;;;;;;;1.10;1.00;;;21.00;72.80;;;;;;5136476;27;20084;-40
2021/08/28 02:56:40;;;;;;;1.73;1.02;;;20.90;73.50;;;;;;5146201;27;20042;-44
2021/08/28 02:59:06;;;;;;;1.63;0.85;;;21.00;72.80;;;;;;5136886;27;20051;-44
2021/08/28 03:01:32;;;;;;;0.90;0.60;;;20.90;72.80;;;;;;5155479;27;20091;-44
2021/08/28 03:03:59;;;;;;;1.20;0.95;;;20.90;72.90;;;;;;5155083;27;20387;-45
2021/08/28 03:06:28;;;;;;;1.13;0.80;;;20.90;72.90;;;;;;5153298;27;20579;-47
2021/08/28 03:08:55;;;;;;;1.33;0.98;;;20.90;72.90;;;;;;5155794;27;20047;-48
2021/08/28 03:11:21;;;;;;;1.00;0.90;;;21.00;73.10;;;;;;5152740;27;20034;-43
2021/08/28 03:13:47;;;;;;;1.80;1.20;;;20.90;73.10;;;;;;5134859;27;20076;-47
2021/08/28 03:16:15;;;;;;;1.42;1.00;;;20.90;73.10;;;;;;5146862;27;20076;-45
2021/08/28 03:18:43;;;;;;;1.17;0.80;;;20.90;73.20;;;;;;5155260;27;20126;-43
2021/08/28 03:21:11;;;;;;;0.90;0.80;;;20.90;73.20;;;;;;5145521;27;20063;-48
2021/08/28 03:23:39;;;;;;;1.77;1.13;;;20.90;73.20;;;;;;5141816;27;20034;-43
2021/08/28 03:26:06;;;;;;;2.00;1.02;;;20.90;73.20;;;;;;5144433;27;20039;-44
2021/08/28 03:28:33;;;;;;;1.73;1.05;;;20.90;73.80;;;;;;5134440;27;20039;-47
2021/08/28 03:30:59;;;;;;;1.73;1.20;;;20.80;74.70;;;;;;5138208;27;20438;-44
2021/08/28 03:33:25;;;;;;;1.35;1.00;;;20.90;75.00;;;;;;5153025;27;20034;-47
2021/08/28 03:35:51;;;;;;;1.70;1.38;;;20.90;75.00;;;;;;5155385;27;20030;-45
2021/08/28 03:38:17;;;;;;;1.23;0.80;;;20.90;74.80;;;;;;5137197;27;20403;-48
2021/08/28 03:40:45;;;;;;;1.40;1.00;;;20.90;74.50;;;;;;5151551;27;20494;-46
2021/08/28 03:43:11;;;;;;;2.13;1.00;;;20.90;74.30;;;;;;5151521;27;20372;-44
2021/08/28 03:45:37;;;;;;;1.25;1.00;;;20.80;74.10;;;;;;5134427;27;20043;-45
2021/08/28 03:48:04;;;;;;;0.82;0.70;;;20.80;74.00;;;;;;5136397;27;20122;-42
2021/08/28 03:50:29;;;;;;;0.82;0.80;;;20.80;73.90;;;;;;5115813;27;20050;-46
2021/08/28 03:52:55;;;;;;;1.20;0.98;;;20.80;73.80;;;;;;5134300;27;20043;-44
2021/08/28 03:55:21;;;;;;;1.38;1.05;;;20.80;73.70;;;;;;5134144;27;20459;-43
2021/08/28 03:57:47;;;;;;;1.00;0.90;;;20.80;73.70;;;;;;5148759;27;20114;-46
2021/08/28 04:00:12;;;;;;;1.83;0.98;;;20.80;73.60;;;;;;5154320;27;20053;-46
2021/08/28 04:02:38;;;;;;;1.23;0.90;;;20.80;73.60;;;;;;5154964;27;20043;-46
2021/08/28 04:05:04;;;;;;;1.13;0.90;;;20.80;73.60;;;;;;5154034;27;20035;-47
2021/08/28 04:07:29;;;;;;;1.83;0.98;;;20.80;73.60;;;;;;5154549;27;20047;-43
2021/08/28 04:09:55;;;;;;;1.20;1.00;;;20.80;73.70;;;;;;5152898;27;20039;-43
2021/08/28 04:12:21;;;;;;;1.65;1.08;;;20.80;73.60;;;;;;5154471;27;20061;-44
2021/08/28 04:14:47;;;;;;;1.08;0.88;;;20.80;73.60;;;;;;5154386;27;20237;-46
2021/08/28 04:17:13;;;;;;;1.92;1.10;;;20.80;74.20;;;;;;5154667;27;20370;-45
2021/08/28 04:19:39;;;;;;;1.70;1.08;;;20.80;73.50;;;;;;5152214;27;20076;-46
2021/08/28 04:22:04;;;;;;;1.17;0.93;;;20.80;73.50;;;;;;5154290;27;20126;-43
2021/08/28 04:24:30;;;;;;;1.48;1.10;;;20.80;73.50;;;;;;5139248;27;20039;-47
2021/08/28 04:26:56;;;;;;;1.10;0.93;;;20.80;73.50;;;;;;5140099;27;20126;-45
2021/08/28 04:29:22;;;;;;;1.55;0.90;;;20.80;73.50;;;;;;5136532;27;20047;-46
2021/08/28 04:31:47;;;;;;;1.15;0.90;;;20.80;73.50;;;;;;5115864;27;20534;-41
2021/08/28 04:34:13;;;;;;;1.65;1.13;;;20.80;73.50;;;;;;5134578;27;20108;-45
2021/08/28 04:36:39;;;;;;;1.15;1.05;;;20.80;73.50;;;;;;5133226;27;20036;-44
2021/08/28 04:39:04;;;;;;;1.90;1.10;;;20.80;73.50;;;;;;5133882;27;20062;-46
2021/08/28 04:41:30;;;;;;;1.17;1.05;;;20.80;73.50;;;;;;5146878;27;20474;-45
2021/08/28 04:43:56;;;;;;;1.35;1.02;;;20.80;73.50;;;;;;5142864;27;20125;-43
2021/08/28 04:46:21;;;;;;;1.27;1.15;;;20.80;73.50;;;;;;5132916;27;20114;-44
2021/08/28 04:48:48;;;;;;;1.13;1.00;;;20.80;73.50;;;;;;5132971;27;20039;-41
2021/08/28 04:51:14;;;;;;;2.00;1.00;;;20.80;73.50;;;;;;5134328;27;20095;-41
2021/08/28 04:53:40;;;;;;;1.40;1.00;;;20.80;73.50;;;;;;5135428;27;20046;-43
2021/08/28 04:56:05;;;;;;;1.10;1.00;;;20.80;73.50;;;;;;5148071;27;20031;-44
2021/08/28 04:58:31;;;;;;;1.67;0.93;;;20.80;73.60;;;;;;5143809;27;20070;-42
2021/08/28 05:00:57;;;;;;;1.20;0.95;;;20.80;73.50;;;;;;5147029;27;20041;-46
2021/08/28 05:03:25;;;;;;;1.88;1.27;;;20.80;73.40;;;;;;5153827;27;20425;-44
2021/08/28 05:05:54;;;;;;;1.75;1.20;;;20.80;73.50;;;;;;5153962;27;20043;-43
2021/08/28 05:08:20;;;;;;;1.15;1.00;;;20.80;73.50;;;;;;5151122;27;20057;-44
2021/08/28 05:10:46;;;;;;;2.47;1.55;;;20.80;73.50;;;;;;5153972;27;20166;-44
2021/08/28 05:13:12;;;;;;;2.25;1.20;;;20.80;73.40;;;;;;5151573;27;20062;-43
2021/08/28 05:15:37;;;;;;;1.55;1.02;;;20.80;73.40;;;;;;5137453;27;20035;-45
2021/08/28 05:18:04;;;;;;;1.30;1.17;;;20.80;73.50;;;;;;5135321;27;20050;-43
2021/08/28 05:20:30;;;;;;;1.42;1.23;;;20.80;73.40;;;;;;5153835;27;20039;-43
2021/08/28 05:22:56;;;;;;;1.30;0.80;;;20.80;73.40;;;;;;5151406;27;20043;-45
2021/08/28 05:25:22;;;;;;;1.20;1.10;;;20.80;73.40;;;;;;5153868;27;20528;-44
2021/08/28 05:27:47;;;;;;;1.58;0.90;;;20.80;73.40;;;;;;5145245;27;20050;-46
2021/08/28 05:30:13;;;;;;;1.80;1.20;;;20.80;73.40;;;;;;5149446;27;20031;-45
2021/08/28 05:32:40;;;;;;;1.98;1.00;;;20.80;73.40;;;;;;5133045;28;20494;-45
2021/08/28 05:35:06;;;;;;;1.40;1.27;;;20.80;73.40;;;;;;5138099;27;20046;-47
2021/08/28 05:37:32;;;;;;;1.50;1.00;;;20.80;73.40;;;;;;5134242;27;20494;-47
2021/08/28 05:39:57;;;;;;;1.65;1.13;;;20.80;73.40;;;;;;5151902;27;20039;-47
2021/08/28 05:42:23;;;;;;;2.03;1.40;;;20.80;73.40;;;;;;5153060;27;20038;-44
2021/08/28 05:44:49;;;;;;;1.88;0.98;;;20.80;73.30;;;;;;5151487;27;20046;-45
2021/08/28 05:47:15;;;;;;;1.23;1.02;;;20.80;73.40;;;;;;5137238;27;20055;-44
2021/08/28 05:49:41;;;;;;;1.80;0.95;;;20.80;73.40;;;;;;5155777;27;20095;-41
2021/08/28 05:52:06;;;;;;;1.23;1.10;;;20.80;73.30;;;;;;5155764;27;20439;-47
2021/08/28 05:54:32;;;;;;;1.50;1.10;;;20.80;73.30;;;;;;5153353;27;20087;-44
2021/08/28 05:56:58;;;;;;;2.08;1.00;;;20.80;73.30;;;;;;5156622;27;20516;-44
2021/08/28 05:59:23;;;;;;;1.40;1.25;;;20.80;73.30;;;;;;5156925;27;20451;-42
2021/08/28 06:01:49;;;;;;;1.50;1.15;;;20.80;73.30;;;;;;5156473;27;20390;-44
2021/08/28 06:04:15;;;;;;;2.28;1.40;;;20.80;73.30;;;;;;5156266;27;20098;-44
2021/08/28 06:06:40;;;;;;;1.58;1.05;;;20.70;73.20;;;;;;5156816;27;20035;-43
2021/08/28 06:09:06;;;;;;;1.88;1.33;;;20.80;73.30;;;;;;5156656;27;20043;-46
2021/08/28 06:11:31;;;;;;;1.95;1.20;;;20.80;73.30;;;;;;5137205;27;20481;-43
2021/08/28 06:13:57;;;;;;;1.50;1.10;;;20.80;73.30;;;;;;5156803;27;20046;-45
2021/08/28 06:16:23;;;;;;;1.70;1.20;;;20.80;73.30;;;;;;5156338;27;20143;-40
2021/08/28 06:18:48;;;;;;;1.63;1.20;;;20.80;73.30;;;;;;5156449;27;20126;-43
2021/08/28 06:21:14;;;;;;;1.85;1.55;;;20.80;73.30;;;;;;5156644;27;20039;-47
2021/08/28 06:23:40;;;;;;;1.17;1.08;;;20.80;73.30;;;;;;5156907;27;20074;-46
2021/08/28 06:26:05;;;;;;;1.83;1.45;;;20.80;73.20;;;;;;5156339;27;20069;-44
2021/08/28 06:28:31;;;;;;;1.60;1.10;;;20.80;73.20;;;;;;5156941;27;20065;-40
2021/08/28 06:30:57;;;;;;;1.50;1.20;;;20.80;73.20;;;;;;5156537;27;20398;-40
2021/08/28 06:33:22;;;;;;;1.90;1.50;;;20.80;73.20;;;;;;5156769;27;20501;-41
2021/08/28 06:35:48;;;;;;;1.95;1.20;;;20.80;73.20;;;;;;5137899;27;20099;-42
2021/08/28 06:38:13;;;;;;;1.83;1.30;;;20.80;73.20;;;;;;5156494;27;20038;-42
2021/08/28 06:40:39;;;;;;;1.80;1.25;;;20.80;73.20;;;;;;5156710;27;20059;-40
2021/08/28 06:43:05;;;;;;;1.58;1.17;;;20.70;73.10;;;;;;5156308;27;20586;-41
2021/08/28 06:45:30;;;;;;;2.78;1.08;;;20.80;73.20;;;;;;5155528;27;20117;-39
2021/08/28 06:47:56;;;;;;;2.55;1.40;;;20.80;73.20;;;;;;5137134;27;20614;-45
2021/08/28 06:50:22;;;;;;;2.22;1.42;;;20.80;73.20;;;;;;5155707;27;20038;-45
2021/08/28 06:52:47;;;;;;;1.73;1.30;;;20.80;73.10;;;;;;5156020;27;20031;-44
2021/08/28 06:55:13;;;;;;;2.63;1.58;;;20.80;73.20;;;;;;5119065;27;20085;-42
2021/08/28 06:57:38;;;;;;;2.45;1.20;;;20.80;73.20;;;;;;5154425;27;20080;-46
2021/08/28 07:00:05;;;;;;;2.40;1.58;;;20.80;73.20;;;;;;5154694;27;20083;-43
2021/08/28 07:02:30;;;;;;;2.05;1.25;;;20.80;73.30;;;;;;5155433;27;20521;-44
2021/08/28 07:04:56;;;;;;;1.10;1.00;;;20.80;73.30;;;;;;5155398;27;20062;-44
2021/08/28 07:07:22;;;;;;;5.75;3.10;;;20.80;73.30;;;;;;5155584;27;20150;-45
2021/08/28 07:09:47;;;;;;;4.00;2.70;;;20.80;72.80;;;;;;5154664;27;20114;-44
2021/08/28 07:12:13;;;;;;;4.90;2.45;;;20.70;72.80;;;;;;5153767;27;20058;-45
2021/08/28 07:14:41;;;;;;;4.45;2.65;;;20.70;72.90;;;;;;5154785;27;20042;-48
2021/08/28 07:17:08;;;;;;;5.45;2.67;;;20.60;72.90;;;;;;5155603;27;20047;-45
2021/08/28 07:19:34;;;;;;;5.32;3.47;;;20.60;72.90;;;;;;5136531;27;20054;-45
2021/08/28 07:22:00;;;;;;;4.38;2.70;;;20.60;72.90;;;;;;5136026;27;20045;-47
2021/08/28 07:24:26;;;;;;;4.65;2.53;;;20.70;72.90;;;;;;5134697;27;20075;-50
2021/08/28 07:26:52;;;;;;;4.72;2.67;;;20.60;72.80;;;;;;5134564;27;20083;-48
2021/08/28 07:29:19;;;;;;;4.18;2.45;;;20.70;72.80;;;;;;5133990;27;20339;-47
2021/08/28 07:31:45;;;;;;;2.97;2.40;;;20.70;72.80;;;;;;5135585;27;20109;-49
2021/08/28 07:34:11;;;;;;;3.75;2.50;;;20.70;72.80;;;;;;5134344;27;20127;-46
2021/08/28 07:36:37;;;;;;;3.50;2.55;;;20.70;72.80;;;;;;5134325;27;20490;-47
2021/08/28 07:39:03;;;;;;;4.72;2.88;;;20.70;72.80;;;;;;5133966;27;20051;-48
2021/08/28 07:41:30;;;;;;;4.45;2.55;;;20.70;72.80;;;;;;5134987;27;20045;-50
2021/08/28 07:43:56;;;;;;;4.10;2.75;;;20.70;72.80;;;;;;5133947;27;20043;-47
2021/08/28 07:46:21;;;;;;;4.60;3.22;;;20.70;72.80;;;;;;5133462;27;20356;-49
2021/08/28 07:48:47;;;;;;;3.90;2.60;;;20.70;72.80;;;;;;5133981;27;20489;-46
2021/08/28 07:51:12;;;;;;;5.15;2.33;;;20.70;72.80;;;;;;5133987;27;20039;-46
2021/08/28 07:53:38;;;;;;;5.68;2.65;;;20.70;72.80;;;;;;5135428;27;20456;-47
2021/08/28 07:56:04;;;;;;;5.07;2.97;;;20.70;72.80;;;;;;5133837;27;20056;-47
2021/08/28 07:58:30;;;;;;;3.28;2.15;;;20.70;72.90;;;;;;5135214;27;20035;-47
2021/08/28 08:00:55;;;;;;;7.03;3.15;;;20.70;73.60;;;;;;5153626;27;20095;-46
2021/08/28 08:03:21;;;;;;;2.78;2.30;;;20.70;72.90;;;;;;5153458;27;20045;-47
2021/08/28 08:05:47;;;;;;;4.45;2.28;;;20.70;73.00;;;;;;5153070;27;20031;-47
2021/08/28 08:08:12;;;;;;;2.95;2.60;;;20.70;73.00;;;;;;5153999;27;20046;-46
2021/08/28 08:10:38;;;;;;;3.22;2.50;;;20.70;73.00;;;;;;5135026;27;20043;-43
2021/08/28 08:13:03;;;;;;;3.40;2.28;;;20.80;73.00;;;;;;5153019;27;20085;-41
2021/08/28 08:15:29;;;;;;;3.83;2.30;;;20.70;72.90;;;;;;5154351;27;20084;-42
2021/08/28 08:17:55;;;;;;;3.67;2.33;;;20.80;73.00;;;;;;5154360;27;20047;-42
2021/08/28 08:20:20;;;;;;;3.28;2.22;;;20.70;72.90;;;;;;5154255;27;20518;-44
2021/08/28 08:22:46;;;;;;;3.78;2.22;;;20.70;72.80;;;;;;5134923;27;20048;-44
2021/08/28 08:25:12;;;;;;;3.17;2.03;;;20.70;72.90;;;;;;5134105;27;20199;-43
2021/08/28 08:27:37;;;;;;;4.63;2.22;;;20.70;72.80;;;;;;5154121;27;20042;-44
2021/08/28 08:30:04;;;;;;;3.60;2.20;;;20.70;72.80;;;;;;5153910;27;20046;-42
2021/08/28 08:32:30;;;;;;;4.00;2.10;;;20.70;72.90;;;;;;5153649;27;20147;-46
2021/08/28 08:34:56;;;;;;;3.70;2.35;;;20.70;72.80;;;;;;5148325;27;20058;-43
2021/08/28 08:37:21;;;;;;;3.80;1.90;;;20.80;72.90;;;;;;5114433;27;20050;-44
2021/08/28 08:39:47;;;;;;;3.50;2.55;;;20.70;72.80;;;;;;5114696;27;20051;-43
2021/08/28 08:42:14;;;;;;;4.18;2.70;;;20.80;72.90;;;;;;5133449;27;20051;-43
2021/08/28 08:44:41;;;;;;;2.45;1.98;;;20.80;72.90;;;;;;5133468;27;20039;-42
2021/08/28 08:47:08;;;;;;;3.75;2.42;;;20.80;72.90;;;;;;5115740;27;20493;-46
2021/08/28 08:49:34;;;;;;;3.40;2.13;;;20.80;72.80;;;;;;5133355;27;20050;-45
2021/08/28 08:52:04;;;;;;;2.92;2.50;;;20.80;72.80;;;;;;5133060;27;20126;-43
2021/08/28 08:54:33;;;;;;;2.85;2.15;;;20.80;72.80;;;;;;5153523;27;20034;-45
2021/08/28 08:56:59;;;;;;;3.72;2.20;;;20.80;72.80;;;;;;5151599;27;20466;-43
2021/08/28 08:59:25;;;;;;;2.75;2.38;;;20.80;72.80;;;;;;5153913;27;20031;-46
2021/08/28 09:01:51;;;;;;;4.32;2.50;;;20.80;72.80;;;;;;5134943;27;20390;-45
2021/08/28 09:04:16;;;;;;;2.75;2.03;;;20.80;72.80;;;;;;5153185;27;20043;-44
2021/08/28 09:06:46;;;;;;;3.85;2.25;;;20.80;72.70;;;;;;5152685;27;20455;-45
2021/08/28 09:09:15;;;;;;;3.67;2.50;;;20.80;72.80;;;;;;5151819;27;20047;-42
2021/08/28 09:12:05;;;;;;;3.25;2.13;;;20.90;72.80;;;;;;5153245;27;20049;-41
2021/08/28 09:14:31;;;;;;;3.00;1.83;;;20.90;72.70;;;;;;5153203;27;20039;-43
2021/08/28 09:17:16;;;;;;;3.03;2.05;;;20.90;72.70;;;;;;5152857;27;20510;-41
2021/08/28 09:19:43;;;;;;;3.45;2.28;;;21.00;72.80;;;;;;5154780;27;20039;-43
2021/08/28 09:22:30;;;;;;;3.42;2.00;;;20.90;72.70;;;;;;5158103;27;20493;-46
2021/08/28 09:25:04;;;;;;;2.72;1.95;;;20.90;72.60;;;;;;5157834;27;20565;-47
2021/08/28 09:27:34;;;;;;;2.50;2.05;;;20.90;72.70;;;;;;5156931;27;20138;-48
2021/08/28 09:30:00;;;;;;;2.55;1.70;;;20.90;72.60;;;;;;5144765;27;20123;-47
2021/08/28 09:32:26;;;;;;;2.88;2.00;;;20.90;72.60;;;;;;5143751;27;20104;-49
2021/08/28 09:34:51;;;;;;;3.85;2.00;;;20.90;72.60;;;;;;5136464;27;20080;-46
2021/08/28 09:37:30;;;;;;;2.60;2.10;;;21.00;72.60;;;;;;5116921;27;20046;-44
2021/08/28 09:39:59;;;;;;;1.92;1.73;;;21.00;72.60;;;;;;5119975;27;20053;-44
2021/08/28 09:42:25;;;;;;;2.50;1.67;;;21.00;72.60;;;;;;5136631;27;20103;-49
2021/08/28 09:44:53;;;;;;;2.70;1.90;;;21.00;72.50;;;;;;5122106;27;20046;-45
2021/08/28 09:47:29;;;;;;;2.95;1.90;;;21.00;72.50;;;;;;5157078;27;20038;-43
2021/08/28 09:49:55;;;;;;;3.15;1.90;;;21.00;72.50;;;;;;5147917;27;20043;-47
2021/08/28 09:52:23;;;;;;;3.28;1.80;;;21.00;72.50;;;;;;5135718;27;20038;-47
2021/08/28 09:54:49;;;;;;;2.10;1.60;;;21.10;72.50;;;;;;5136846;27;20364;-44
2021/08/28 09:57:16;;;;;;;2.35;1.80;;;21.10;72.50;;;;;;5136296;27;20039;-47
2021/08/28 09:59:43;;;;;;;2.72;1.80;;;21.10;72.50;;;;;;5147521;27;20039;-45
2021/08/28 10:02:11;;;;;;;2.17;1.70;;;21.10;72.50;;;;;;5136367;27;20039;-49
2021/08/28 10:04:52;;;;;;;2.47;1.70;;;21.10;72.50;;;;;;5156691;27;20082;-45
2021/08/28 10:07:26;;;;;;;2.67;2.10;;;21.10;72.50;;;;;;5155962;27;20154;-48
2021/08/28 10:10:03;;;;;;;2.80;1.90;;;21.10;72.50;;;;;;5156623;27;20046;-48
2021/08/28 10:12:34;;;;;;;2.80;1.70;;;21.10;72.50;;;;;;5137341;27;20126;-44
2021/08/28 10:15:04;;;;;;;2.88;1.60;;;21.20;72.40;;;;;;5151989;27;20054;-47
2021/08/28 10:17:31;;;;;;;2.28;1.65;;;21.20;72.40;;;;;;5153979;27;20390;-46
2021/08/28 10:19:58;;;;;;;2.75;1.85;;;21.20;72.40;;;;;;5156004;27;20479;-46
2021/08/28 10:22:29;;;;;;;2.00;1.60;;;21.20;72.40;;;;;;5140912;27;20059;-44
2021/08/28 10:24:57;;;;;;;4.25;1.70;;;21.20;72.30;;;;;;5136068;27;20039;-43
2021/08/28 10:27:25;;;;;;;2.35;1.50;;;21.10;72.30;;;;;;5136227;27;20083;-44
2021/08/28 10:29:50;;;;;;;2.10;1.63;;;21.20;72.30;;;;;;5134513;27;20043;-45
2021/08/28 10:32:17;;;;;;;1.75;1.60;;;21.20;72.30;;;;;;5136962;27;20042;-45
2021/08/28 10:34:43;;;;;;;1.92;1.50;;;21.20;72.30;;;;;;5137428;27;20049;-44
2021/08/28 10:37:09;;;;;;;2.58;1.77;;;21.20;72.20;;;;;;5134594;27;20047;-45
2021/08/28 10:39:36;;;;;;;1.65;1.40;;;21.20;72.20;;;;;;5134659;27;20063;-44
2021/08/28 10:42:05;;;;;;;2.42;1.60;;;21.20;72.20;;;;;;5115829;27;20047;-40
2021/08/28 10:44:31;;;;;;;2.00;1.70;;;21.30;72.30;;;;;;5134450;27;20043;-44
2021/08/28 10:46:57;;;;;;;1.90;1.38;;;21.30;72.30;;;;;;5135714;27;20102;-45
2021/08/28 10:49:23;;;;;;;2.42;1.63;;;21.30;72.30;;;;;;5134850;27;20068;-46
2021/08/28 10:51:56;;;;;;;4.25;1.75;;;21.30;72.20;;;;;;5134409;27;20054;-49
2021/08/28 10:54:33;;;;;;;2.05;1.60;;;21.30;72.20;;;;;;5136347;27;20047;-44
2021/08/28 10:57:02;;;;;;;2.60;1.70;;;21.30;72.20;;;;;;5135566;27;20047;-44
2021/08/28 10:59:28;;;;;;;2.38;1.60;;;21.30;72.20;;;;;;5115559;27;20047;-44
2021/08/28 11:02:08;;;;;;;3.35;1.88;;;21.30;72.20;;;;;;5135193;27;20563;-42
2021/08/28 11:04:36;;;;;;;2.33;1.65;;;21.30;72.20;;;;;;5136400;27;20043;-45
2021/08/28 11:07:28;;;;;;;1.55;1.20;;;21.30;72.20;;;;;;5134702;27;20126;-43
2021/08/28 11:10:13;;;;;;;1.80;1.45;;;21.30;72.20;;;;;;5134720;27;20043;-42
2021/08/28 11:12:49;;;;;;;2.25;1.50;;;21.30;72.20;;;;;;5133347;27;20054;-43
2021/08/28 11:15:24;;;;;;;1.60;1.50;;;21.30;72.20;;;;;;5136552;27;20094;-43
2021/08/28 11:17:51;;;;;;;2.13;1.63;;;21.30;72.20;;;;;;5135339;27;20043;-43
2021/08/28 11:20:24;;;;;;;2.10;1.50;;;21.30;72.10;;;;;;5133489;27;20471;-43
2021/08/28 11:22:50;;;;;;;2.28;1.45;;;21.30;72.10;;;;;;5134903;27;20043;-44
2021/08/28 11:25:19;;;;;;;2.55;1.60;;;21.30;72.10;;;;;;5135297;27;20444;-41
2021/08/28 11:27:47;;;;;;;1.80;1.55;;;21.30;72.10;;;;;;5116044;27;20059;-41
2021/08/28 11:30:15;;;;;;;2.55;1.33;;;21.30;72.10;;;;;;5134702;27;20043;-45
2021/08/28 11:32:41;;;;;;;1.83;1.70;;;21.30;72.10;;;;;;5134594;27;20483;-47
2021/08/28 11:35:07;;;;;;;1.67;1.40;;;21.30;72.10;;;;;;5134429;27;20506;-40
2021/08/28 11:37:34;;;;;;;2.05;1.40;;;21.30;72.10;;;;;;5135427;27;20043;-44
2021/08/28 11:40:03;;;;;;;2.15;1.50;;;21.30;72.10;;;;;;5134193;27;20546;-42
2021/08/28 11:42:31;;;;;;;2.25;1.50;;;21.30;72.10;;;;;;5133602;27;20050;-45
2021/08/28 11:44:58;;;;;;;1.90;1.45;;;21.30;72.10;;;;;;5134654;27;20339;-44
2021/08/28 11:47:27;;;;;;;1.40;1.30;;;21.30;72.10;;;;;;5135397;27;20134;-43
2021/08/28 11:49:54;;;;;;;1.63;1.38;;;21.30;72.10;;;;;;5134004;27;20532;-44
2021/08/28 11:52:20;;;;;;;2.17;1.40;;;21.30;72.10;;;;;;5134088;27;20069;-49
2021/08/28 11:54:47;;;;;;;1.30;1.20;;;21.30;72.10;;;;;;5142463;27;20038;-49
2021/08/28 11:57:19;;;;;;;4.10;1.60;;;21.30;72.10;;;;;;5128439;27;20043;-48
2021/08/28 11:59:45;;;;;;;1.92;1.30;;;21.30;72.00;;;;;;5141820;27;20077;-49
2021/08/28 12:02:12;;;;;;;2.38;1.52;;;21.30;72.00;;;;;;5155088;27;20070;-47
2021/08/28 12:04:38;;;;;;;2.03;1.50;;;21.30;72.00;;;;;;5150391;27;20049;-48
2021/08/28 12:07:05;;;;;;;2.25;1.40;;;21.30;72.00;;;;;;5149972;27;20043;-42
2021/08/28 12:09:32;;;;;;;2.05;1.55;;;21.30;72.00;;;;;;5129738;27;20046;-42
2021/08/28 12:11:59;;;;;;;1.55;1.30;;;21.30;71.90;;;;;;5130209;27;20195;-45
2021/08/28 12:14:30;;;;;;;1.88;1.20;;;21.40;72.00;;;;;;5137774;27;20087;-44
2021/08/28 12:16:57;;;;;;;1.70;1.23;;;21.30;71.90;;;;;;5129734;27;20509;-40
2021/08/28 12:19:26;;;;;;;1.75;1.45;;;21.30;71.90;;;;;;5130364;27;20090;-43
2021/08/28 12:22:00;;;;;;;2.85;1.40;;;21.40;71.90;;;;;;5129126;27;20090;-44
2021/08/28 12:24:39;;;;;;;1.60;1.50;;;21.30;71.90;;;;;;5129492;27;20107;-42
2021/08/28 12:27:10;;;;;;;2.00;1.20;;;21.30;71.90;;;;;;5129303;27;20147;-42
2021/08/28 12:29:37;;;;;;;1.50;1.40;;;21.30;71.90;;;;;;5129982;27;20598;-42
2021/08/28 12:32:06;;;;;;;2.60;1.38;;;21.30;71.90;;;;;;5128738;27;20121;-44
2021/08/28 12:34:36;;;;;;;1.60;1.40;;;21.30;71.90;;;;;;5129029;27;20043;-45
2021/08/28 12:37:06;;;;;;;1.85;1.27;;;21.40;71.90;;;;;;5128988;27;20584;-40
2021/08/28 12:39:33;;;;;;;1.55;1.33;;;21.30;71.90;;;;;;5134052;27;20057;-42
2021/08/28 12:41:59;;;;;;;1.40;1.30;;;21.40;71.90;;;;;;5149393;27;20502;-42
2021/08/28 12:44:30;;;;;;;2.58;1.45;;;21.40;71.90;;;;;;5149397;27;20121;-41
2021/08/28 12:47:00;;;;;;;1.63;1.20;;;21.30;71.90;;;;;;5149910;27;20578;-41
2021/08/28 12:49:27;;;;;;;1.38;1.20;;;21.30;71.90;;;;;;5130637;27;20095;-40
2021/08/28 12:52:02;;;;;;;1.75;1.23;;;21.40;71.90;;;;;;5148123;27;20095;-40